createdAt,value
2023-05-25T00:04:48.699Z,20.78
2023-05-25T00:09:51.910Z,20.09
2023-05-25T00:14:55.290Z,19.01
2023-05-25T00:20:09.508Z,18.38
2023-05-25T00:25:13.037Z,17.88
2023-05-25T00:30:16.356Z,17.48
2023-05-25T00:35:19.581Z,17.14
2023-05-25T00:40:23.156Z,16.87
2023-05-25T00:45:26.365Z,16.65
2023-05-25T00:50:43.766Z,17.69
2023-05-25T00:55:59.015Z,20.64
2023-05-25T01:01:04.072Z,20.27
2023-05-25T01:06:16.038Z,19.07
2023-05-25T01:11:28.746Z,18.41
2023-05-25T01:16:32.441Z,17.94
2023-05-25T01:22:05.475Z,17.55
2023-05-25T01:27:19.427Z,17.19
2023-05-25T01:32:23.019Z,16.91
2023-05-25T01:37:28.190Z,16.70
2023-05-25T01:42:32.845Z,17.72
2023-05-25T01:48:33.349Z,20.56
2023-05-25T01:54:14.143Z,19.97
2023-05-25T01:59:21.781Z,18.76
2023-05-25T02:04:26.455Z,18.15
2023-05-25T02:09:30.555Z,17.69
2023-05-25T02:14:35.838Z,17.32
2023-05-25T02:19:38.919Z,16.98
2023-05-25T02:24:42.030Z,16.71
2023-05-25T02:29:45.813Z,17.75
2023-05-25T02:34:49.180Z,20.44
2023-05-25T02:39:53.717Z,19.59
2023-05-25T02:44:57.104Z,18.46
2023-05-25T02:50:00.415Z,17.79
2023-05-25T02:55:04.631Z,17.30
2023-05-25T03:00:12.624Z,16.94
2023-05-25T03:05:16.835Z,16.64
2023-05-25T03:10:20.659Z,16.40
2023-05-25T03:15:24.411Z,17.51
2023-05-25T03:20:28.412Z,20.22
2023-05-25T03:25:32.664Z,19.40
2023-05-25T03:30:36.405Z,18.21
2023-05-25T03:35:39.609Z,17.55
2023-05-25T03:40:43.037Z,17.15
2023-05-25T03:45:46.574Z,16.85
2023-05-25T03:50:50.149Z,16.59
2023-05-25T03:55:53.305Z,16.38
2023-05-25T04:00:56.734Z,17.49
2023-05-25T04:06:00.780Z,20.37
2023-05-25T04:11:06.545Z,20.15
2023-05-25T04:16:10.400Z,18.82
2023-05-25T04:21:13.843Z,18.10
2023-05-25T04:26:18.390Z,17.58
2023-05-25T04:31:25.155Z,17.14
2023-05-25T04:36:47.815Z,16.76
2023-05-25T04:41:53.133Z,16.49
2023-05-25T04:46:56.857Z,16.29
2023-05-25T04:52:07.447Z,17.42
2023-05-25T04:57:11.465Z,20.36
2023-05-25T05:02:14.654Z,20.18
2023-05-25T05:07:18.490Z,18.81
2023-05-25T05:12:21.826Z,18.07
2023-05-25T05:17:29.233Z,17.54
2023-05-25T05:22:33.525Z,17.14
2023-05-25T05:33:29.844Z,17.67
2023-05-25T05:38:33.360Z,20.55
2023-05-25T05:43:36.668Z,20.34
2023-05-25T05:48:39.776Z,18.94
2023-05-25T05:53:42.871Z,18.13
2023-05-25T05:58:47.633Z,17.59
2023-05-25T06:03:53.108Z,17.18
2023-05-25T06:08:56.537Z,16.88
2023-05-25T06:13:59.962Z,16.63
2023-05-25T06:19:03.637Z,16.46
2023-05-25T06:24:07.390Z,17.47
2023-05-25T06:29:10.593Z,20.31
2023-05-25T06:34:14.576Z,20.03
2023-05-25T06:39:17.816Z,18.78
2023-05-25T06:44:21.388Z,18.05
2023-05-25T06:49:29.436Z,17.54
2023-05-25T06:54:33.193Z,17.17
2023-05-25T06:59:36.267Z,16.90
2023-05-25T07:04:39.380Z,16.68
2023-05-25T07:09:42.446Z,16.49
2023-05-25T07:14:48.497Z,17.40
2023-05-25T07:19:51.629Z,20.30
2023-05-25T07:24:54.689Z,19.98
2023-05-25T07:33:29.920Z,18.30
2023-05-25T07:38:33.228Z,17.81
2023-05-25T07:43:37.649Z,17.42
2023-05-25T07:48:40.787Z,17.13
2023-05-25T07:53:43.862Z,16.90
2023-05-25T07:58:47.017Z,16.72
2023-05-25T08:03:50.582Z,16.58
2023-05-25T08:08:53.713Z,17.68
2023-05-25T08:13:58.145Z,20.50
2023-05-25T08:19:01.809Z,19.88
2023-05-25T08:24:08.614Z,18.71
2023-05-25T08:29:11.753Z,18.07
2023-05-25T08:34:15.265Z,17.65
2023-05-25T08:39:19.137Z,17.32
2023-05-25T08:44:22.535Z,17.07
2023-05-25T08:49:29.711Z,16.90
2023-05-25T08:54:37.482Z,16.73
2023-05-25T09:00:17.940Z,16.63
2023-05-25T09:05:24.694Z,16.53
2023-05-25T09:10:30.720Z,17.73
2023-05-25T09:15:34.412Z,20.65
2023-05-25T09:20:37.760Z,20.00
2023-05-25T09:25:41.532Z,18.88
2023-05-25T09:30:48.990Z,18.29
2023-05-25T09:35:52.497Z,17.87
2023-05-25T09:40:56.275Z,17.53
2023-05-25T09:45:59.560Z,17.26
2023-05-25T09:51:04.850Z,17.06
2023-05-25T09:56:07.996Z,16.91
2023-05-25T10:01:11.920Z,18.08
2023-05-25T10:06:16.416Z,21.24
2023-05-25T10:11:22.815Z,22.01
2023-05-25T10:16:29.703Z,20.69
2023-05-25T10:21:37.002Z,19.83
2023-05-25T10:26:42.658Z,19.33
2023-05-25T10:31:46.423Z,18.94
2023-05-25T10:36:51.385Z,18.64
2023-05-25T10:41:55.260Z,18.41
2023-05-25T10:47:02.235Z,18.22
2023-05-25T10:52:05.730Z,18.09
2023-05-25T10:57:11.518Z,18.00
2023-05-25T11:02:16.191Z,17.89
2023-05-25T11:37:55.517Z,18.89
2023-05-25T11:43:00.933Z,20.87
2023-05-25T11:48:05.404Z,19.83
2023-05-25T11:53:08.757Z,19.20
2023-05-25T11:58:11.909Z,18.82
2023-05-25T12:03:33.851Z,18.53
2023-05-25T12:08:38.246Z,18.25
2023-05-25T12:13:41.539Z,18.03
2023-05-25T12:18:44.661Z,17.91
2023-05-25T12:23:48.715Z,17.82
2023-05-25T12:29:05.929Z,17.73
2023-05-25T12:34:18.546Z,17.63
2023-05-25T12:39:30.304Z,18.95
2023-05-25T13:33:30.056Z,18.97
2023-05-25T13:38:37.253Z,21.85
2023-05-25T13:43:40.487Z,21.44
2023-05-25T13:48:47.531Z,20.24
2023-05-25T13:53:50.570Z,19.52
2023-05-25T13:58:54.621Z,19.07
2023-05-25T14:04:00.007Z,18.71
2023-05-25T14:09:03.543Z,18.43
2023-05-25T14:14:16.513Z,18.24
2023-05-25T14:19:26.659Z,18.09
2023-05-25T14:24:29.768Z,17.99
2023-05-25T14:35:09.697Z,18.96
2023-05-25T14:40:13.654Z,21.85
2023-05-25T14:45:18.463Z,21.50
2023-05-25T14:50:21.608Z,20.30
2023-05-25T14:55:25.089Z,19.65
2023-05-25T15:00:29.168Z,19.22
2023-05-25T15:05:32.264Z,18.88
2023-05-25T15:10:35.525Z,18.61
2023-05-25T15:15:38.805Z,18.40
2023-05-25T15:20:47.955Z,18.22
2023-05-25T15:25:51.208Z,18.11
2023-05-25T15:30:54.607Z,18.04
2023-05-25T15:35:57.959Z,19.13
2023-05-25T15:41:01.213Z,22.03
2023-05-25T15:46:04.707Z,21.75
2023-05-25T15:51:07.856Z,20.60
2023-05-25T15:56:11.265Z,19.99
2023-05-25T16:01:14.618Z,19.62
2023-05-25T16:06:17.812Z,19.33
2023-05-25T16:11:21.019Z,19.04
2023-05-25T16:16:24.690Z,18.81
2023-05-25T16:21:27.864Z,18.61
2023-05-25T16:26:30.986Z,18.42
2023-05-25T16:31:34.898Z,18.25
2023-05-25T16:36:38.100Z,18.13
2023-05-25T16:41:41.477Z,18.03
2023-05-25T16:46:46.119Z,19.18
2023-05-25T16:51:49.377Z,21.99
2023-05-25T16:56:52.620Z,21.47
2023-05-25T17:01:56.540Z,20.26
2023-05-25T17:06:59.812Z,19.54
2023-05-25T17:12:03.810Z,19.03
2023-05-25T17:17:07.057Z,18.60
2023-05-25T17:22:10.772Z,18.28
2023-05-25T17:27:14.082Z,17.97
2023-05-25T17:38:18.641Z,19.41
2023-05-25T17:43:21.709Z,21.19
2023-05-25T17:48:24.811Z,19.96
2023-05-25T17:53:27.996Z,19.13
2023-05-25T17:58:39.221Z,18.63
2023-05-25T18:03:43.165Z,18.27
2023-05-25T18:08:46.496Z,17.99
2023-05-25T18:13:49.985Z,17.73
2023-05-25T18:18:52.989Z,18.77
2023-05-25T18:23:56.135Z,21.53
2023-05-25T18:28:59.290Z,21.09
2023-05-25T18:34:09.507Z,19.68
2023-05-25T18:39:12.717Z,18.83
2023-05-25T18:44:15.916Z,18.28
2023-05-25T18:49:19.225Z,17.87
2023-05-25T18:54:22.573Z,17.54
2023-05-25T18:59:26.168Z,18.57
2023-05-25T19:04:29.466Z,21.29
2023-05-25T19:09:32.700Z,20.89
2023-05-25T19:14:35.869Z,19.56
2023-05-25T19:19:39.021Z,18.80
2023-05-25T19:24:44.286Z,18.25
2023-05-25T19:33:33.471Z,17.58
2023-05-25T19:38:41.154Z,18.49
2023-05-25T19:43:45.839Z,21.24
2023-05-25T19:48:49.021Z,20.87
2023-05-25T19:53:52.561Z,19.55
2023-05-25T19:58:55.907Z,18.81
2023-05-25T20:03:59.070Z,18.30
2023-05-25T20:09:48.005Z,18.84
2023-05-25T20:14:51.293Z,21.49
2023-05-25T20:19:56.540Z,21.00
2023-05-25T20:25:01.139Z,19.64
2023-05-25T20:33:33.132Z,18.48
2023-05-25T20:38:36.279Z,18.03
2023-05-25T20:43:39.994Z,17.67
2023-05-25T20:48:46.963Z,18.59
2023-05-25T20:53:50.214Z,21.30
2023-05-25T20:58:53.723Z,20.88
2023-05-25T21:03:57.244Z,19.42
2023-05-25T21:09:00.990Z,18.57
2023-05-25T21:14:04.674Z,17.96
2023-05-25T21:19:07.820Z,18.68
2023-05-25T21:24:11.120Z,21.26
2023-05-25T21:29:14.379Z,20.72
2023-05-25T21:34:17.747Z,19.24
2023-05-25T21:39:21.042Z,18.36
2023-05-25T21:44:27.382Z,17.76
2023-05-25T21:49:30.845Z,18.52
2023-05-25T21:54:33.927Z,21.18
2023-05-25T21:59:37.240Z,20.68
2023-05-25T22:04:46.909Z,19.29
2023-05-25T22:09:50.135Z,18.47
2023-05-25T22:14:53.355Z,17.90
2023-05-25T22:20:07.332Z,18.64
2023-05-25T22:25:13.519Z,21.29
2023-05-25T22:35:54.038Z,19.24
2023-05-25T22:40:57.440Z,18.47
2023-05-25T22:46:00.711Z,17.94
2023-05-25T22:51:04.301Z,18.79
2023-05-25T22:56:07.777Z,21.41
2023-05-25T23:01:10.911Z,21.06
2023-05-25T23:06:14.134Z,19.54
2023-05-25T23:11:17.543Z,18.69
2023-05-25T23:16:21.318Z,18.09
2023-05-25T23:21:24.991Z,17.64
2023-05-25T23:26:28.274Z,18.51
2023-05-25T23:31:31.486Z,21.14
2023-05-25T23:36:34.884Z,20.96
2023-05-25T23:41:38.108Z,19.43
2023-05-25T23:46:41.272Z,18.51
2023-05-25T23:51:44.570Z,17.86
2023-05-25T23:56:47.744Z,18.63
